createdAt,value
2023-01-31T00:01:34.985Z,2.85
2023-01-31T00:04:07.186Z,2.65
2023-01-31T00:06:45.201Z,2.47
2023-01-31T00:09:12.970Z,2.40
2023-01-31T00:11:39.817Z,2.55
2023-01-31T00:14:07.882Z,3.53
2023-01-31T00:16:35.049Z,3.25
2023-01-31T00:19:02.083Z,4.35
2023-01-31T00:21:30.294Z,2.85
2023-01-31T00:23:57.692Z,2.63
2023-01-31T00:26:32.478Z,3.22
2023-01-31T00:29:00.355Z,2.92
2023-01-31T00:31:29.033Z,3.38
2023-01-31T00:33:56.314Z,2.47
2023-01-31T00:36:28.846Z,2.83
2023-01-31T00:38:57.967Z,3.28
2023-01-31T00:41:26.379Z,3.65
2023-01-31T00:46:22.427Z,2.85
2023-01-31T00:48:49.338Z,3.45
2023-01-31T00:51:16.376Z,3.58
2023-01-31T00:53:43.109Z,2.55
2023-01-31T00:56:12.000Z,2.63
2023-01-31T00:58:39.713Z,3.35
2023-01-31T01:01:21.885Z,2.50
2023-01-31T01:03:48.811Z,2.55
2023-01-31T01:06:15.613Z,3.03
2023-01-31T01:08:42.727Z,2.95
2023-01-31T01:11:12.031Z,2.80
2023-01-31T01:13:39.328Z,2.60
2023-01-31T01:16:12.123Z,2.90
2023-01-31T01:18:39.276Z,2.72
2023-01-31T01:21:13.704Z,3.40
2023-01-31T01:23:41.153Z,2.58
2023-01-31T01:26:14.149Z,2.10
2023-01-31T01:28:41.069Z,3.03
2023-01-31T01:31:09.431Z,2.58
2023-01-31T01:33:37.146Z,2.42
2023-01-31T01:36:05.177Z,3.92
2023-01-31T01:38:34.777Z,2.88
2023-01-31T01:41:01.701Z,3.65
2023-01-31T01:43:43.782Z,2.33
2023-01-31T01:46:13.867Z,2.33
2023-01-31T01:48:41.243Z,3.00
2023-01-31T01:51:08.263Z,2.33
2023-01-31T01:53:38.243Z,3.38
2023-01-31T01:56:09.523Z,2.88
2023-01-31T01:58:43.287Z,2.80
2023-01-31T02:01:11.023Z,2.22
2023-01-31T02:03:38.701Z,2.75
2023-01-31T02:06:06.745Z,3.10
2023-01-31T02:08:36.153Z,3.60
2023-01-31T02:11:25.089Z,2.92
2023-01-31T02:14:01.318Z,2.28
2023-01-31T02:16:28.093Z,2.50
2023-01-31T02:18:55.036Z,2.20
2023-01-31T02:22:12.936Z,2.40
2023-01-31T02:27:27.913Z,3.20
2023-01-31T02:30:16.490Z,1.73
2023-01-31T02:33:10.899Z,3.42
2023-01-31T02:35:58.593Z,2.17
2023-01-31T02:38:35.610Z,2.45
2023-01-31T02:41:14.914Z,2.65
2023-01-31T02:44:12.726Z,3.10
2023-01-31T02:46:45.053Z,2.65
2023-01-31T02:49:34.770Z,2.60
2023-01-31T02:52:16.269Z,3.00
2023-01-31T02:55:33.596Z,2.95
2023-01-31T02:58:02.492Z,2.28
2023-01-31T03:00:29.803Z,2.47
2023-01-31T03:02:56.506Z,2.63
2023-01-31T03:05:23.845Z,2.20
2023-01-31T03:07:53.435Z,2.30
2023-01-31T03:10:23.376Z,3.63
2023-01-31T03:13:06.331Z,2.55
2023-01-31T03:16:06.345Z,3.20
2023-01-31T03:18:46.670Z,2.38
2023-01-31T03:21:16.508Z,2.75
2023-01-31T03:23:46.009Z,2.10
2023-01-31T03:26:13.256Z,2.97
2023-01-31T03:28:42.286Z,2.40
2023-01-31T03:31:30.573Z,2.42
2023-01-31T03:34:01.495Z,3.13
2023-01-31T03:36:37.770Z,2.63
2023-01-31T03:39:07.423Z,3.28
2023-01-31T03:41:54.922Z,3.38
2023-01-31T03:44:32.986Z,2.90
2023-01-31T03:47:04.722Z,3.05
2023-01-31T03:49:32.401Z,3.50
2023-01-31T03:52:06.297Z,2.63
2023-01-31T03:54:37.925Z,3.30
2023-01-31T03:57:32.466Z,3.13
2023-01-31T04:00:00.215Z,3.78
2023-01-31T04:02:33.541Z,2.97
2023-01-31T04:05:13.455Z,3.58
2023-01-31T04:07:40.669Z,5.03
2023-01-31T04:10:12.893Z,2.63
2023-01-31T04:12:39.991Z,3.50
2023-01-31T04:15:07.160Z,3.13
2023-01-31T04:17:33.984Z,3.08
2023-01-31T04:20:00.901Z,3.28
2023-01-31T04:22:28.063Z,2.53
2023-01-31T04:24:54.764Z,3.60
2023-01-31T04:27:21.347Z,3.45
2023-01-31T04:29:47.927Z,4.25
2023-01-31T04:32:14.546Z,4.65
2023-01-31T04:34:41.215Z,4.38
2023-01-31T04:37:07.817Z,4.32
2023-01-31T04:39:34.367Z,3.45
2023-01-31T04:42:00.910Z,4.05
2023-01-31T04:44:27.472Z,3.10
2023-01-31T04:46:54.127Z,3.35
2023-01-31T04:49:20.810Z,3.05
2023-01-31T04:51:47.398Z,2.70
2023-01-31T04:54:13.957Z,3.45
2023-01-31T04:56:40.580Z,2.88
2023-01-31T04:59:07.530Z,3.17
2023-01-31T05:01:34.101Z,2.78
2023-01-31T05:04:00.646Z,3.28
2023-01-31T05:06:27.212Z,2.75
2023-01-31T05:08:54.569Z,3.03
2023-01-31T05:11:21.282Z,3.17
2023-01-31T05:13:48.224Z,3.08
2023-01-31T05:16:14.863Z,2.58
2023-01-31T05:18:41.480Z,3.35
2023-01-31T05:21:08.471Z,3.13
2023-01-31T05:23:35.287Z,2.78
2023-01-31T05:26:02.055Z,3.10
2023-01-31T05:28:28.679Z,3.50
2023-01-31T05:31:02.968Z,2.85
2023-01-31T05:33:31.785Z,4.00
2023-01-31T05:35:58.616Z,3.40
2023-01-31T05:38:25.296Z,3.17
2023-01-31T05:40:52.507Z,3.17
2023-01-31T05:43:19.135Z,3.53
2023-01-31T05:45:47.639Z,4.22
2023-01-31T05:50:40.676Z,3.78
2023-01-31T05:53:07.346Z,3.88
2023-01-31T05:55:33.909Z,3.40
2023-01-31T05:58:01.442Z,4.15
2023-01-31T06:00:28.218Z,4.10
2023-01-31T06:02:58.702Z,4.35
2023-01-31T06:05:25.471Z,4.68
2023-01-31T06:07:52.052Z,3.45
2023-01-31T06:10:20.239Z,3.53
2023-01-31T06:12:47.782Z,4.43
2023-01-31T06:15:14.395Z,4.47
2023-01-31T06:17:40.949Z,4.28
2023-01-31T06:20:08.209Z,3.80
2023-01-31T06:22:34.771Z,4.30
2023-01-31T06:25:01.365Z,4.70
2023-01-31T06:27:27.948Z,5.32
2023-01-31T06:29:54.476Z,6.28
2023-01-31T06:32:21.099Z,5.68
2023-01-31T06:34:47.662Z,5.25
2023-01-31T06:37:14.253Z,5.43
2023-01-31T06:39:40.839Z,5.60
2023-01-31T06:42:07.606Z,5.55
2023-01-31T06:44:34.250Z,7.65
2023-01-31T06:47:01.668Z,6.05
2023-01-31T06:49:28.368Z,6.40
2023-01-31T06:51:55.542Z,6.28
2023-01-31T06:54:22.205Z,7.00
2023-01-31T06:56:48.845Z,5.93
2023-01-31T06:59:15.465Z,5.65
2023-01-31T07:01:42.124Z,6.97
2023-01-31T07:04:08.749Z,6.22
2023-01-31T07:06:35.350Z,7.35
2023-01-31T07:09:01.925Z,6.50
2023-01-31T07:11:28.496Z,6.40
2023-01-31T07:13:55.110Z,6.72
2023-01-31T07:16:23.842Z,7.55
2023-01-31T07:18:53.314Z,7.20
2023-01-31T07:21:19.961Z,7.13
2023-01-31T07:23:46.761Z,7.38
2023-01-31T07:26:13.613Z,6.65
2023-01-31T07:28:40.264Z,7.30
2023-01-31T07:31:10.887Z,6.90
2023-01-31T07:33:38.303Z,6.45
2023-01-31T07:36:06.010Z,6.28
2023-01-31T07:38:34.218Z,7.63
2023-01-31T07:41:01.666Z,5.97
2023-01-31T07:43:28.241Z,6.97
2023-01-31T07:45:55.138Z,6.53
2023-01-31T07:48:23.569Z,6.82
2023-01-31T07:53:21.881Z,6.72
2023-01-31T07:55:48.778Z,7.75
2023-01-31T07:58:16.540Z,6.60
2023-01-31T08:01:01.987Z,7.93
2023-01-31T08:03:33.725Z,6.30
2023-01-31T08:06:07.785Z,6.45
2023-01-31T08:08:35.261Z,6.85
2023-01-31T08:11:01.937Z,7.40
2023-01-31T08:13:28.490Z,6.55
2023-01-31T08:15:55.094Z,7.07
2023-01-31T08:18:21.662Z,7.00
2023-01-31T08:20:48.264Z,7.15
2023-01-31T08:23:14.905Z,7.07
2023-01-31T08:25:41.535Z,7.57
2023-01-31T08:28:08.453Z,7.78
2023-01-31T08:30:35.139Z,7.70
2023-01-31T08:33:01.839Z,7.93
2023-01-31T08:35:28.451Z,9.70
2023-01-31T08:38:03.713Z,9.15
2023-01-31T08:40:33.657Z,9.68
2023-01-31T08:43:03.530Z,10.32
2023-01-31T08:45:30.716Z,10.23
2023-01-31T08:48:00.778Z,9.20
2023-01-31T08:50:29.080Z,10.43
2023-01-31T08:52:57.371Z,10.45
2023-01-31T08:55:24.891Z,9.65
2023-01-31T08:57:59.216Z,10.32
2023-01-31T09:00:26.785Z,11.30
2023-01-31T09:03:02.594Z,10.35
2023-01-31T09:05:30.309Z,11.10
2023-01-31T09:07:57.255Z,11.00
2023-01-31T09:10:24.706Z,11.65
2023-01-31T09:12:51.360Z,10.93
2023-01-31T09:15:18.304Z,11.23
2023-01-31T09:17:45.196Z,10.57
2023-01-31T09:20:12.032Z,12.05
2023-01-31T09:22:38.700Z,11.82
2023-01-31T09:25:05.847Z,11.35
2023-01-31T09:27:32.567Z,9.45
2023-01-31T09:29:59.167Z,10.65
2023-01-31T09:32:25.764Z,10.48
2023-01-31T09:34:52.611Z,11.40
2023-01-31T09:37:19.252Z,11.32
2023-01-31T09:39:45.887Z,10.82
2023-01-31T09:42:40.623Z,11.18
2023-01-31T09:45:16.122Z,9.98
2023-01-31T09:47:47.846Z,10.70
2023-01-31T09:50:34.817Z,10.02
2023-01-31T09:53:02.316Z,10.30
2023-01-31T09:56:13.100Z,11.40
2023-01-31T09:59:11.173Z,10.57
2023-01-31T10:01:44.838Z,10.10
2023-01-31T10:04:14.546Z,10.38
2023-01-31T10:06:51.356Z,11.13
2023-01-31T10:09:28.099Z,10.82
2023-01-31T10:12:09.866Z,10.02
2023-01-31T10:14:36.666Z,10.25
2023-01-31T10:17:09.949Z,10.77
2023-01-31T10:19:39.297Z,9.48
2023-01-31T10:22:10.423Z,9.70
2023-01-31T10:24:44.965Z,9.23
2023-01-31T10:27:50.737Z,9.23
2023-01-31T10:30:22.644Z,8.85
2023-01-31T10:33:00.657Z,8.80
2023-01-31T10:35:36.196Z,9.63
2023-01-31T10:38:33.075Z,8.20
2023-01-31T10:41:14.755Z,8.95
2023-01-31T10:43:53.831Z,8.48
2023-01-31T10:46:21.055Z,9.57
2023-01-31T10:48:48.339Z,9.57
2023-01-31T10:51:47.585Z,8.47
2023-01-31T10:54:47.446Z,9.18
2023-01-31T10:57:14.293Z,8.75
2023-01-31T10:59:44.416Z,8.90
2023-01-31T11:02:23.633Z,8.15
2023-01-31T11:04:57.323Z,8.45
2023-01-31T11:07:24.528Z,9.13
2023-01-31T11:09:54.171Z,9.40
2023-01-31T11:12:22.211Z,9.43
2023-01-31T11:15:06.842Z,8.25
2023-01-31T11:17:36.231Z,9.00
2023-01-31T11:20:06.669Z,9.60
2023-01-31T11:22:35.248Z,9.63
2023-01-31T11:25:06.706Z,8.85
2023-01-31T11:27:43.757Z,8.48
2023-01-31T11:30:26.358Z,8.55
2023-01-31T11:32:57.129Z,8.63
2023-01-31T11:35:27.023Z,8.30
2023-01-31T11:37:56.755Z,9.80
2023-01-31T11:40:30.467Z,9.05
2023-01-31T11:43:02.635Z,9.65
2023-01-31T11:45:33.802Z,9.48
2023-01-31T11:48:08.403Z,9.10
2023-01-31T11:50:38.784Z,8.57
2023-01-31T11:53:18.509Z,9.07
2023-01-31T11:55:46.212Z,8.52
2023-01-31T11:58:20.472Z,7.93
2023-01-31T12:01:00.953Z,9.65
2023-01-31T12:03:27.896Z,8.43
2023-01-31T12:06:08.860Z,7.72
2023-01-31T12:08:38.152Z,8.35
2023-01-31T12:11:20.090Z,7.50
2023-01-31T12:13:54.645Z,8.13
2023-01-31T12:16:24.508Z,8.88
2023-01-31T12:19:00.797Z,8.18
2023-01-31T12:21:27.804Z,7.80
2023-01-31T12:24:00.691Z,7.72
2023-01-31T12:26:39.590Z,8.68
2023-01-31T12:29:30.697Z,9.23
2023-01-31T12:32:02.103Z,9.13
2023-01-31T12:34:50.497Z,8.82
2023-01-31T12:37:40.844Z,9.52
2023-01-31T12:40:24.172Z,8.63
2023-01-31T12:43:00.277Z,9.00
2023-01-31T12:45:26.966Z,9.30
2023-01-31T12:48:13.041Z,9.10
2023-01-31T12:50:53.192Z,9.80
2023-01-31T12:53:22.749Z,10.15
2023-01-31T12:55:55.260Z,9.80
2023-01-31T12:58:33.756Z,9.63
2023-01-31T13:01:12.202Z,9.90
2023-01-31T13:03:57.327Z,10.45
2023-01-31T13:06:37.787Z,11.38
2023-01-31T13:09:17.253Z,11.05
2023-01-31T13:11:48.563Z,11.77
2023-01-31T13:14:20.122Z,10.20
2023-01-31T13:16:47.913Z,10.57
2023-01-31T13:19:24.355Z,10.90
2023-01-31T13:22:04.045Z,10.30
2023-01-31T13:24:37.348Z,11.55
2023-01-31T13:27:15.688Z,11.20
2023-01-31T13:32:15.674Z,10.15
2023-01-31T13:34:51.782Z,9.32
2023-01-31T13:37:21.489Z,9.63
2023-01-31T13:39:55.675Z,10.48
2023-01-31T13:42:22.341Z,8.75
2023-01-31T13:44:50.164Z,10.18
2023-01-31T13:47:22.762Z,9.38
2023-01-31T13:50:22.704Z,9.85
2023-01-31T13:52:53.074Z,8.52
2023-01-31T13:55:38.805Z,9.23
2023-01-31T13:58:27.915Z,8.52
2023-01-31T14:01:13.333Z,8.98
2023-01-31T14:04:11.021Z,8.77
2023-01-31T14:06:55.674Z,9.50
2023-01-31T14:09:30.232Z,8.75
2023-01-31T14:11:58.684Z,9.50
2023-01-31T14:17:05.860Z,10.30
2023-01-31T14:20:00.352Z,11.32
2023-01-31T14:22:39.992Z,11.45
2023-01-31T14:25:14.939Z,11.10
2023-01-31T14:27:56.648Z,12.55
2023-01-31T14:30:31.442Z,12.50
2023-01-31T14:32:57.948Z,12.35
2023-01-31T14:35:46.493Z,11.75
2023-01-31T14:38:35.393Z,11.88
2023-01-31T14:41:14.908Z,11.52
2023-01-31T14:44:18.550Z,11.82
2023-01-31T14:47:12.865Z,11.45
2023-01-31T14:49:39.395Z,11.60
2023-01-31T14:52:28.510Z,11.82
2023-01-31T14:54:57.692Z,12.55
2023-01-31T14:57:47.962Z,12.63
2023-01-31T15:00:14.511Z,11.57
2023-01-31T15:02:46.594Z,12.07
2023-01-31T15:05:19.237Z,11.60
2023-01-31T15:08:13.617Z,10.88
2023-01-31T15:10:55.606Z,10.77
2023-01-31T15:13:50.840Z,10.32
2023-01-31T15:16:20.499Z,9.07
2023-01-31T15:18:51.203Z,8.68
2023-01-31T15:21:22.189Z,8.38
2023-01-31T15:23:48.971Z,8.88
2023-01-31T15:26:16.701Z,7.90
2023-01-31T15:28:44.738Z,7.90
2023-01-31T15:31:30.002Z,8.98
2023-01-31T15:34:00.147Z,8.23
2023-01-31T15:36:42.162Z,8.27
2023-01-31T15:39:29.496Z,7.82
2023-01-31T15:41:56.096Z,7.47
2023-01-31T15:44:24.921Z,8.13
2023-01-31T15:46:53.646Z,6.88
2023-01-31T15:49:39.949Z,7.50
2023-01-31T15:52:16.823Z,6.68
2023-01-31T15:54:57.348Z,6.43
2023-01-31T15:57:57.163Z,5.32
2023-01-31T16:00:29.868Z,5.70
2023-01-31T16:03:02.650Z,5.00
2023-01-31T16:05:34.339Z,5.75
2023-01-31T16:08:02.470Z,4.93
2023-01-31T16:10:30.225Z,6.05
2023-01-31T16:12:58.199Z,5.32
2023-01-31T16:15:31.265Z,6.43
2023-01-31T16:18:02.563Z,5.45
2023-01-31T16:20:53.035Z,5.03
2023-01-31T16:23:32.573Z,6.13
2023-01-31T16:26:02.049Z,5.00
2023-01-31T16:28:30.462Z,5.20
2023-01-31T16:31:08.408Z,4.75
2023-01-31T16:33:35.593Z,4.65
2023-01-31T16:36:14.425Z,4.30
2023-01-31T16:38:44.202Z,4.10
2023-01-31T16:41:13.040Z,3.83
2023-01-31T16:43:41.910Z,3.90
2023-01-31T16:46:36.281Z,4.78
2023-01-31T16:49:05.563Z,3.65
2023-01-31T16:51:32.130Z,3.33
2023-01-31T16:54:24.522Z,3.88
2023-01-31T16:57:03.570Z,4.00
2023-01-31T16:59:33.511Z,4.30
2023-01-31T17:02:17.464Z,5.57
2023-01-31T17:04:45.734Z,4.72
2023-01-31T17:07:25.753Z,4.32
2023-01-31T17:09:57.870Z,4.70
2023-01-31T17:12:29.794Z,4.47
2023-01-31T17:15:00.900Z,4.55
2023-01-31T17:17:32.907Z,3.92
2023-01-31T17:19:59.546Z,3.45
2023-01-31T17:22:26.830Z,4.00
2023-01-31T17:24:53.446Z,3.65
2023-01-31T17:27:21.519Z,3.67
2023-01-31T17:29:48.415Z,4.90
2023-01-31T17:32:20.132Z,3.15
2023-01-31T17:34:48.771Z,4.63
2023-01-31T17:37:18.087Z,3.95
2023-01-31T17:39:47.216Z,2.40
2023-01-31T17:42:19.098Z,2.88
2023-01-31T17:44:45.755Z,2.58
2023-01-31T17:47:12.683Z,2.65
2023-01-31T17:49:39.290Z,2.65
2023-01-31T17:52:05.876Z,3.53
2023-01-31T17:54:32.491Z,2.67
2023-01-31T17:56:59.216Z,2.95
2023-01-31T17:59:27.488Z,2.33
2023-01-31T18:01:54.495Z,2.28
2023-01-31T18:04:21.171Z,2.30
2023-01-31T18:06:47.794Z,2.42
2023-01-31T18:09:16.282Z,2.40
2023-01-31T18:14:11.850Z,3.90
2023-01-31T18:16:38.456Z,2.72
2023-01-31T18:19:05.088Z,2.00
2023-01-31T18:21:31.949Z,2.90
2023-01-31T18:23:58.945Z,2.80
2023-01-31T18:26:25.845Z,2.33
2023-01-31T18:28:54.331Z,2.50
2023-01-31T18:31:21.103Z,3.08
2023-01-31T18:33:48.063Z,2.15
2023-01-31T18:36:19.081Z,2.78
2023-01-31T18:38:46.809Z,2.42
2023-01-31T18:41:15.016Z,2.30
2023-01-31T18:43:43.083Z,2.28
2023-01-31T18:46:10.397Z,2.88
2023-01-31T18:48:37.565Z,2.30
2023-01-31T18:51:09.032Z,2.33
2023-01-31T18:53:37.450Z,2.45
2023-01-31T18:56:06.607Z,2.33
2023-01-31T18:58:34.848Z,2.22
2023-01-31T19:01:06.897Z,2.65
2023-01-31T19:03:33.938Z,2.50
2023-01-31T19:06:08.925Z,2.75
2023-01-31T19:08:35.524Z,2.60
2023-01-31T19:11:13.863Z,3.15
2023-01-31T19:13:41.609Z,2.70
2023-01-31T19:16:13.488Z,3.20
2023-01-31T19:18:40.156Z,2.50
2023-01-31T19:21:27.215Z,2.58
2023-01-31T19:23:55.754Z,2.72
2023-01-31T19:28:48.975Z,2.35
2023-01-31T19:31:18.713Z,2.40
2023-01-31T19:33:50.213Z,2.08
2023-01-31T19:36:22.201Z,2.55
2023-01-31T19:38:49.053Z,3.67
2023-01-31T19:41:21.010Z,2.97
2023-01-31T19:44:05.981Z,3.10
2023-01-31T19:46:34.659Z,2.90
2023-01-31T19:49:01.515Z,2.35
2023-01-31T19:51:28.339Z,2.60
2023-01-31T19:53:59.060Z,2.70
2023-01-31T19:56:26.096Z,2.95
2023-01-31T19:58:52.749Z,2.75
2023-01-31T20:01:19.456Z,3.28
2023-01-31T20:03:46.457Z,2.85
2023-01-31T20:06:15.550Z,3.28
2023-01-31T20:08:42.436Z,2.45
2023-01-31T20:11:09.674Z,2.70
2023-01-31T20:13:36.750Z,3.65
2023-01-31T20:16:06.789Z,3.13
2023-01-31T20:18:37.570Z,2.90
2023-01-31T20:21:04.724Z,3.83
2023-01-31T20:23:31.766Z,2.40
2023-01-31T20:25:58.606Z,2.97
2023-01-31T20:28:26.397Z,3.10
2023-01-31T20:30:53.394Z,3.15
2023-01-31T20:33:20.365Z,3.92
2023-01-31T20:35:47.333Z,3.47
2023-01-31T20:38:17.194Z,2.53
2023-01-31T20:40:50.252Z,3.35
2023-01-31T20:43:17.770Z,3.78
2023-01-31T20:45:44.368Z,2.42
2023-01-31T20:48:11.028Z,3.30
2023-01-31T20:50:37.631Z,2.78
2023-01-31T20:53:04.317Z,3.03
2023-01-31T20:55:31.239Z,2.80
2023-01-31T20:57:58.566Z,4.55
2023-01-31T21:00:25.444Z,2.70
2023-01-31T21:02:52.055Z,3.00
2023-01-31T21:05:19.176Z,3.70
2023-01-31T21:07:45.815Z,3.05
2023-01-31T21:10:12.950Z,3.90
2023-01-31T21:12:39.563Z,3.53
2023-01-31T21:15:06.714Z,3.03
2023-01-31T21:17:40.001Z,2.88
2023-01-31T21:20:08.539Z,2.88
2023-01-31T21:22:35.301Z,2.42
2023-01-31T21:25:02.156Z,2.50
2023-01-31T21:27:28.875Z,2.72
2023-01-31T21:29:55.488Z,3.58
2023-01-31T21:32:24.247Z,3.30
2023-01-31T21:34:52.337Z,3.15
2023-01-31T21:37:19.209Z,3.97
2023-01-31T21:39:45.888Z,2.63
2023-01-31T21:42:15.274Z,3.13
2023-01-31T21:44:42.874Z,2.72
2023-01-31T21:47:09.708Z,2.73
2023-01-31T21:49:36.580Z,2.65
2023-01-31T21:52:03.915Z,2.38
2023-01-31T21:54:30.545Z,2.60
2023-01-31T21:56:57.186Z,3.33
2023-01-31T21:59:24.029Z,2.83
2023-01-31T22:01:52.081Z,3.55
2023-01-31T22:04:21.027Z,3.53
2023-01-31T22:06:51.066Z,2.60
2023-01-31T22:09:18.149Z,2.63
2023-01-31T22:11:44.978Z,2.92
2023-01-31T22:14:13.556Z,3.25
2023-01-31T22:16:40.792Z,2.72
2023-01-31T22:19:07.649Z,3.17
2023-01-31T22:21:36.463Z,2.55
2023-01-31T22:24:04.908Z,3.08
2023-01-31T22:29:01.140Z,3.17
2023-01-31T22:31:28.532Z,3.25
2023-01-31T22:33:56.250Z,2.70
2023-01-31T22:36:24.826Z,2.50
2023-01-31T22:38:51.534Z,3.33
2023-01-31T22:41:20.026Z,2.67
2023-01-31T22:43:48.946Z,2.88
2023-01-31T22:46:19.351Z,2.70
2023-01-31T22:48:49.304Z,3.30
2023-01-31T22:51:18.299Z,3.10
2023-01-31T22:53:45.119Z,3.97
2023-01-31T22:56:15.300Z,2.58
2023-01-31T22:58:42.273Z,3.97
2023-01-31T23:01:15.992Z,4.35
2023-01-31T23:03:42.795Z,2.90
2023-01-31T23:06:09.865Z,2.45
2023-01-31T23:08:36.620Z,3.17
2023-01-31T23:11:08.835Z,3.55
2023-01-31T23:13:36.328Z,3.50
2023-01-31T23:16:04.316Z,4.32
2023-01-31T23:18:31.021Z,3.17
2023-01-31T23:21:16.157Z,2.80
2023-01-31T23:23:43.062Z,2.90
2023-01-31T23:26:09.786Z,2.97
2023-01-31T23:28:36.437Z,3.35
2023-01-31T23:31:03.218Z,2.58
2023-01-31T23:33:29.867Z,3.60
2023-01-31T23:35:56.523Z,3.05
2023-01-31T23:38:23.152Z,2.80
2023-01-31T23:40:53.877Z,3.45
2023-01-31T23:43:21.643Z,3.17
2023-01-31T23:45:48.535Z,2.97
2023-01-31T23:48:15.417Z,3.85
2023-01-31T23:50:41.987Z,2.83
2023-01-31T23:53:08.651Z,4.00
2023-01-31T23:55:35.308Z,3.95
2023-01-31T23:58:01.936Z,3.65
